sensor_id;sensor_type;location;lat;lon;timestamp;pressure;altitude;pressure_sealevel;temperature;humidity
42761;BME280;31672;47.638;19.026;2023-04-06T00:03:05;100335.38;;;-1.57;60.64
42761;BME280;31672;47.638;19.026;2023-04-06T00:08:09;100331.31;;;-1.61;60.66
42761;BME280;31672;47.638;19.026;2023-04-06T00:13:13;100334.06;;;-1.64;60.75
42761;BME280;31672;47.638;19.026;2023-04-06T00:18:16;100334.91;;;-1.64;60.73
42761;BME280;31672;47.638;19.026;2023-04-06T00:23:19;100325.31;;;-1.63;60.55
42761;BME280;31672;47.638;19.026;2023-04-06T00:28:22;100329.59;;;-1.62;60.74
42761;BME280;31672;47.638;19.026;2023-04-06T00:33:28;100320.09;;;-1.63;60.81
42761;BME280;31672;47.638;19.026;2023-04-06T00:38:31;100306.06;;;-1.60;60.86
42761;BME280;31672;47.638;19.026;2023-04-06T00:43:34;100307.50;;;-1.55;60.90
42761;BME280;31672;47.638;19.026;2023-04-06T00:48:37;100314.38;;;-1.54;60.46
42761;BME280;31672;47.638;19.026;2023-04-06T00:53:41;100304.69;;;-1.52;60.21
42761;BME280;31672;47.638;19.026;2023-04-06T00:58:44;100308.22;;;-1.53;60.18
42761;BME280;31672;47.638;19.026;2023-04-06T01:03:48;100305.63;;;-1.53;59.91
42761;BME280;31672;47.638;19.026;2023-04-06T01:08:52;100294.84;;;-1.47;60.12
42761;BME280;31672;47.638;19.026;2023-04-06T01:13:56;100308.47;;;-1.27;59.31
42761;BME280;31672;47.638;19.026;2023-04-06T01:18:59;100307.84;;;-1.17;58.59
42761;BME280;31672;47.638;19.026;2023-04-06T01:24:02;100305.63;;;-1.09;58.32
42761;BME280;31672;47.638;19.026;2023-04-06T01:29:05;100304.25;;;-1.00;57.94
42761;BME280;31672;47.638;19.026;2023-04-06T01:34:08;100297.38;;;-1.01;57.51
42761;BME280;31672;47.638;19.026;2023-04-06T01:39:11;100297.53;;;-1.04;57.82
42761;BME280;31672;47.638;19.026;2023-04-06T01:44:18;100298.47;;;-1.19;59.20
42761;BME280;31672;47.638;19.026;2023-04-06T01:49:22;100300.28;;;-1.36;59.25
42761;BME280;31672;47.638;19.026;2023-04-06T01:54:25;100294.19;;;-1.50;60.34
42761;BME280;31672;47.638;19.026;2023-04-06T01:59:28;100294.03;;;-1.63;60.60
42761;BME280;31672;47.638;19.026;2023-04-06T02:04:31;100290.47;;;-1.76;61.38
42761;BME280;31672;47.638;19.026;2023-04-06T02:09:35;100279.66;;;-1.84;61.80
42761;BME280;31672;47.638;19.026;2023-04-06T02:14:39;100280.16;;;-1.94;61.91
42761;BME280;31672;47.638;19.026;2023-04-06T02:19:42;100277.91;;;-2.00;62.42
42761;BME280;31672;47.638;19.026;2023-04-06T02:24:45;100269.69;;;-2.08;63.02
42761;BME280;31672;47.638;19.026;2023-04-06T02:29:49;100272.63;;;-2.14;63.65
42761;BME280;31672;47.638;19.026;2023-04-06T02:34:52;100266.09;;;-2.21;64.08
42761;BME280;31672;47.638;19.026;2023-04-06T02:39:56;100265.41;;;-2.25;64.26
42761;BME280;31672;47.638;19.026;2023-04-06T02:45:00;100261.47;;;-2.32;64.56
42761;BME280;31672;47.638;19.026;2023-04-06T02:50:03;100260.16;;;-2.39;65.06
42761;BME280;31672;47.638;19.026;2023-04-06T02:55:07;100255.28;;;-2.45;65.19
42761;BME280;31672;47.638;19.026;2023-04-06T03:00:11;100257.28;;;-2.50;65.95
42761;BME280;31672;47.638;19.026;2023-04-06T03:05:15;100256.84;;;-2.58;66.05
42761;BME280;31672;47.638;19.026;2023-04-06T03:10:18;100256.09;;;-2.60;66.23
42761;BME280;31672;47.638;19.026;2023-04-06T03:15:21;100253.91;;;-2.68;66.30
42761;BME280;31672;47.638;19.026;2023-04-06T03:20:25;100257.59;;;-2.72;66.00
42761;BME280;31672;47.638;19.026;2023-04-06T03:25:28;100257.78;;;-2.75;66.45
42761;BME280;31672;47.638;19.026;2023-04-06T03:30:33;100263.22;;;-2.80;66.34
42761;BME280;31672;47.638;19.026;2023-04-06T03:35:37;100264.19;;;-2.82;67.00
42761;BME280;31672;47.638;19.026;2023-04-06T03:40:40;100259.16;;;-2.85;67.12
42761;BME280;31672;47.638;19.026;2023-04-06T03:45:43;100261.88;;;-2.87;66.72
42761;BME280;31672;47.638;19.026;2023-04-06T03:50:46;100254.91;;;-2.86;66.79
42761;BME280;31672;47.638;19.026;2023-04-06T03:55:49;100260.00;;;-2.85;66.83
42761;BME280;31672;47.638;19.026;2023-04-06T04:00:53;100253.13;;;-2.86;66.53
42761;BME280;31672;47.638;19.026;2023-04-06T04:05:56;100249.94;;;-2.91;67.25
42761;BME280;31672;47.638;19.026;2023-04-06T04:10:59;100249.19;;;-2.93;67.03
42761;BME280;31672;47.638;19.026;2023-04-06T04:16:03;100251.00;;;-2.95;66.54
42761;BME280;31672;47.638;19.026;2023-04-06T04:21:06;100240.88;;;-3.00;67.29
42761;BME280;31672;47.638;19.026;2023-04-06T04:26:10;100243.22;;;-2.95;67.12
42761;BME280;31672;47.638;19.026;2023-04-06T04:31:13;100244.56;;;-2.88;66.85
42761;BME280;31672;47.638;19.026;2023-04-06T04:36:17;100228.94;;;-2.88;67.78
42761;BME280;31672;47.638;19.026;2023-04-06T04:41:21;100235.53;;;-2.81;68.07
42761;BME280;31672;47.638;19.026;2023-04-06T04:46:24;100227.38;;;-2.59;66.96
42761;BME280;31672;47.638;19.026;2023-04-06T04:51:27;100230.00;;;-2.27;65.78
42761;BME280;31672;47.638;19.026;2023-04-06T04:56:30;100232.88;;;-2.02;65.05
42761;BME280;31672;47.638;19.026;2023-04-06T05:01:34;100223.09;;;-1.82;64.21
42761;BME280;31672;47.638;19.026;2023-04-06T05:07:09;100228.63;;;-1.58;63.17
42761;BME280;31672;47.638;19.026;2023-04-06T05:12:12;100218.91;;;-1.41;63.51
42761;BME280;31672;47.638;19.026;2023-04-06T05:17:15;100213.88;;;-1.29;62.38
42761;BME280;31672;47.638;19.026;2023-04-06T05:22:18;100198.53;;;-1.20;62.39
42761;BME280;31672;47.638;19.026;2023-04-06T05:27:21;100203.84;;;-1.07;61.97
42761;BME280;31672;47.638;19.026;2023-04-06T05:32:24;100201.88;;;-0.89;61.51
42761;BME280;31672;47.638;19.026;2023-04-06T05:37:28;100197.81;;;-0.66;61.65
42761;BME280;31672;47.638;19.026;2023-04-06T05:42:41;100192.91;;;-0.44;60.79
42761;BME280;31672;47.638;19.026;2023-04-06T05:47:47;100176.59;;;-0.20;60.71
42761;BME280;31672;47.638;19.026;2023-04-06T05:52:50;100172.38;;;0.04;60.57
42761;BME280;31672;47.638;19.026;2023-04-06T05:57:53;100170.75;;;0.29;60.30
42761;BME280;31672;47.638;19.026;2023-04-06T06:02:56;100156.22;;;0.50;59.41
42761;BME280;31672;47.638;19.026;2023-04-06T06:08:00;100158.94;;;0.74;58.80
42761;BME280;31672;47.638;19.026;2023-04-06T06:13:05;100161.72;;;1.09;56.86
42761;BME280;31672;47.638;19.026;2023-04-06T06:18:08;100158.13;;;1.47;52.90
42761;BME280;31672;47.638;19.026;2023-04-06T06:23:11;100148.75;;;1.79;51.00
42761;BME280;31672;47.638;19.026;2023-04-06T06:28:14;100140.41;;;2.09;49.75
42761;BME280;31672;47.638;19.026;2023-04-06T06:33:18;100132.25;;;2.36;49.04
42761;BME280;31672;47.638;19.026;2023-04-06T06:38:21;100127.97;;;2.58;46.99
42761;BME280;31672;47.638;19.026;2023-04-06T06:43:26;100123.69;;;2.68;46.56
42761;BME280;31672;47.638;19.026;2023-04-06T06:48:29;100134.78;;;2.72;46.58
42761;BME280;31672;47.638;19.026;2023-04-06T06:53:32;100121.31;;;2.76;46.21
42761;BME280;31672;47.638;19.026;2023-04-06T06:58:35;100123.19;;;2.85;46.33
42761;BME280;31672;47.638;19.026;2023-04-06T07:03:38;100122.84;;;3.01;46.19
42761;BME280;31672;47.638;19.026;2023-04-06T07:08:41;100114.81;;;3.14;45.17
42761;BME280;31672;47.638;19.026;2023-04-06T07:13:44;100121.91;;;3.34;45.59
42761;BME280;31672;47.638;19.026;2023-04-06T07:18:47;100116.28;;;3.50;44.31
42761;BME280;31672;47.638;19.026;2023-04-06T07:23:50;100113.66;;;3.71;44.58
42761;BME280;31672;47.638;19.026;2023-04-06T07:28:53;100108.00;;;3.87;44.10
42761;BME280;31672;47.638;19.026;2023-04-06T07:33:56;100109.47;;;4.00;43.62
42761;BME280;31672;47.638;19.026;2023-04-06T07:38:59;100120.06;;;4.10;44.03
42761;BME280;31672;47.638;19.026;2023-04-06T07:44:03;100113.50;;;4.25;42.47
42761;BME280;31672;47.638;19.026;2023-04-06T07:49:06;100117.25;;;4.53;42.77
42761;BME280;31672;47.638;19.026;2023-04-06T07:54:09;100110.94;;;4.66;41.61
42761;BME280;31672;47.638;19.026;2023-04-06T07:59:12;100114.28;;;4.68;41.31
42761;BME280;31672;47.638;19.026;2023-04-06T08:04:17;100097.31;;;4.81;42.37
42761;BME280;31672;47.638;19.026;2023-04-06T08:09:20;100094.72;;;5.01;42.13
42761;BME280;31672;47.638;19.026;2023-04-06T08:14:23;100103.06;;;5.16;41.28
42761;BME280;31672;47.638;19.026;2023-04-06T08:19:27;100100.59;;;5.33;41.69
42761;BME280;31672;47.638;19.026;2023-04-06T08:24:29;100085.63;;;5.44;40.32
42761;BME280;31672;47.638;19.026;2023-04-06T08:29:35;100083.44;;;5.78;40.74
42761;BME280;31672;47.638;19.026;2023-04-06T08:34:38;100076.34;;;6.07;38.98
42761;BME280;31672;47.638;19.026;2023-04-06T08:39:41;100080.28;;;6.40;38.47
42761;BME280;31672;47.638;19.026;2023-04-06T08:44:45;100069.53;;;6.61;37.88
42761;BME280;31672;47.638;19.026;2023-04-06T08:49:49;100067.72;;;7.07;37.11
42761;BME280;31672;47.638;19.026;2023-04-06T08:54:53;100067.53;;;7.18;35.52
42761;BME280;31672;47.638;19.026;2023-04-06T08:59:56;100069.09;;;7.11;36.23
42761;BME280;31672;47.638;19.026;2023-04-06T09:05:01;100059.28;;;6.76;36.21
42761;BME280;31672;47.638;19.026;2023-04-06T09:10:05;100068.81;;;6.59;37.33
42761;BME280;31672;47.638;19.026;2023-04-06T09:15:19;100063.00;;;6.56;37.02
42761;BME280;31672;47.638;19.026;2023-04-06T09:20:27;100059.09;;;6.60;37.19
42761;BME280;31672;47.638;19.026;2023-04-06T09:25:31;100059.69;;;6.81;36.25
42761;BME280;31672;47.638;19.026;2023-04-06T09:30:35;100051.75;;;7.09;36.66
42761;BME280;31672;47.638;19.026;2023-04-06T09:35:38;100036.38;;;7.40;35.93
42761;BME280;31672;47.638;19.026;2023-04-06T09:40:51;100038.31;;;7.56;35.54
42761;BME280;31672;47.638;19.026;2023-04-06T09:46:04;100032.00;;;7.92;35.19
42761;BME280;31672;47.638;19.026;2023-04-06T09:51:08;100017.94;;;8.18;34.28
42761;BME280;31672;47.638;19.026;2023-04-06T09:56:17;100023.56;;;8.41;34.06
42761;BME280;31672;47.638;19.026;2023-04-06T10:01:26;100016.50;;;8.57;33.13
42761;BME280;31672;47.638;19.026;2023-04-06T10:06:33;100018.66;;;8.62;32.93
42761;BME280;31672;47.638;19.026;2023-04-06T10:11:38;100016.38;;;8.67;32.47
42761;BME280;31672;47.638;19.026;2023-04-06T10:16:42;100006.41;;;8.61;32.50
42761;BME280;31672;47.638;19.026;2023-04-06T10:21:49;100011.53;;;8.54;31.45
42761;BME280;31672;47.638;19.026;2023-04-06T10:27:03;100000.94;;;8.54;32.26
42761;BME280;31672;47.638;19.026;2023-04-06T10:32:09;99995.53;;;8.80;31.74
42761;BME280;31672;47.638;19.026;2023-04-06T10:37:16;99997.91;;;8.92;31.45
42761;BME280;31672;47.638;19.026;2023-04-06T10:42:25;99986.94;;;8.78;30.21
42761;BME280;31672;47.638;19.026;2023-04-06T10:47:40;99979.13;;;8.69;28.86
42761;BME280;31672;47.638;19.026;2023-04-06T10:52:45;99974.88;;;8.92;30.46
42761;BME280;31672;47.638;19.026;2023-04-06T10:57:49;99981.38;;;9.14;30.17
42761;BME280;31672;47.638;19.026;2023-04-06T11:02:59;99969.63;;;9.33;29.31
42761;BME280;31672;47.638;19.026;2023-04-06T11:08:04;99960.53;;;9.44;29.46
42761;BME280;31672;47.638;19.026;2023-04-06T11:13:07;99958.03;;;9.42;28.49
42761;BME280;31672;47.638;19.026;2023-04-06T11:18:12;99951.91;;;9.50;28.61
42761;BME280;31672;47.638;19.026;2023-04-06T11:23:25;99942.78;;;9.60;29.82
42761;BME280;31672;47.638;19.026;2023-04-06T11:28:29;99946.69;;;9.97;29.35
42761;BME280;31672;47.638;19.026;2023-04-06T11:33:37;99937.06;;;9.96;28.42
42761;BME280;31672;47.638;19.026;2023-04-06T11:38:41;99942.72;;;9.77;29.15
42761;BME280;31672;47.638;19.026;2023-04-06T11:43:47;99934.00;;;9.44;28.98
42761;BME280;31672;47.638;19.026;2023-04-06T11:48:50;99934.50;;;9.15;29.27
42761;BME280;31672;47.638;19.026;2023-04-06T11:53:54;99932.00;;;9.05;29.88
42761;BME280;31672;47.638;19.026;2023-04-06T11:58:58;99932.81;;;8.97;30.55
42761;BME280;31672;47.638;19.026;2023-04-06T12:04:04;99926.16;;;8.77;30.11
42761;BME280;31672;47.638;19.026;2023-04-06T12:09:08;99920.34;;;8.73;31.54
42761;BME280;31672;47.638;19.026;2023-04-06T12:14:11;99915.91;;;8.82;31.85
42761;BME280;31672;47.638;19.026;2023-04-06T12:19:15;99918.41;;;8.83;32.01
42761;BME280;31672;47.638;19.026;2023-04-06T12:24:18;99922.38;;;8.96;32.06
42761;BME280;31672;47.638;19.026;2023-04-06T12:29:21;99914.78;;;9.09;31.75
42761;BME280;31672;47.638;19.026;2023-04-06T12:34:25;99909.97;;;9.21;31.83
42761;BME280;31672;47.638;19.026;2023-04-06T12:39:28;99903.66;;;9.22;31.81
42761;BME280;31672;47.638;19.026;2023-04-06T12:44:31;99910.63;;;9.23;31.89
42761;BME280;31672;47.638;19.026;2023-04-06T12:49:35;99908.31;;;9.20;31.72
42761;BME280;31672;47.638;19.026;2023-04-06T12:54:38;99908.50;;;9.18;31.33
42761;BME280;31672;47.638;19.026;2023-04-06T12:59:44;99900.84;;;8.99;30.93
42761;BME280;31672;47.638;19.026;2023-04-06T13:04:49;99908.44;;;8.85;32.40
42761;BME280;31672;47.638;19.026;2023-04-06T13:09:53;99923.66;;;8.67;32.49
42761;BME280;31672;47.638;19.026;2023-04-06T13:14:56;99906.25;;;8.56;33.60
42761;BME280;31672;47.638;19.026;2023-04-06T13:19:59;99893.16;;;8.55;33.95
42761;BME280;31672;47.638;19.026;2023-04-06T13:25:03;99901.78;;;8.57;33.83
42761;BME280;31672;47.638;19.026;2023-04-06T13:30:07;99894.66;;;8.57;33.37
42761;BME280;31672;47.638;19.026;2023-04-06T13:35:10;99893.63;;;8.42;33.81
42761;BME280;31672;47.638;19.026;2023-04-06T13:40:14;99901.53;;;8.34;34.00
42761;BME280;31672;47.638;19.026;2023-04-06T13:45:17;99883.44;;;8.21;34.77
42761;BME280;31672;47.638;19.026;2023-04-06T13:50:20;99901.66;;;8.24;35.32
42761;BME280;31672;47.638;19.026;2023-04-06T13:55:23;99880.78;;;8.21;35.72
42761;BME280;31672;47.638;19.026;2023-04-06T14:00:29;99873.72;;;8.30;35.79
42761;BME280;31672;47.638;19.026;2023-04-06T14:05:33;99876.59;;;8.45;36.16
42761;BME280;31672;47.638;19.026;2023-04-06T14:10:40;99882.22;;;8.42;36.44
42761;BME280;31672;47.638;19.026;2023-04-06T14:15:45;99893.34;;;8.11;36.82
42761;BME280;31672;47.638;19.026;2023-04-06T14:20:58;99890.69;;;7.77;37.32
42761;BME280;31672;47.638;19.026;2023-04-06T14:26:08;99912.56;;;7.61;39.01
42761;BME280;31672;47.638;19.026;2023-04-06T14:31:15;99912.00;;;7.49;40.03
42761;BME280;31672;47.638;19.026;2023-04-06T14:36:19;99916.00;;;7.28;41.64
42761;BME280;31672;47.638;19.026;2023-04-06T14:41:23;99924.75;;;7.10;43.57
42761;BME280;31672;47.638;19.026;2023-04-06T14:46:27;99921.81;;;6.95;44.13
42761;BME280;31672;47.638;19.026;2023-04-06T14:51:34;99923.63;;;6.77;44.46
42761;BME280;31672;47.638;19.026;2023-04-06T14:56:37;99916.44;;;6.69;44.55
42761;BME280;31672;47.638;19.026;2023-04-06T15:01:41;99927.63;;;6.63;45.91
42761;BME280;31672;47.638;19.026;2023-04-06T15:06:44;99932.13;;;6.53;47.12
42761;BME280;31672;47.638;19.026;2023-04-06T15:11:47;99932.06;;;6.35;47.99
42761;BME280;31672;47.638;19.026;2023-04-06T15:16:50;99936.72;;;6.24;49.46
42761;BME280;31672;47.638;19.026;2023-04-06T15:21:53;99932.16;;;6.26;49.06
42761;BME280;31672;47.638;19.026;2023-04-06T15:26:57;99927.94;;;6.33;48.80
42761;BME280;31672;47.638;19.026;2023-04-06T15:31:59;99934.78;;;6.26;49.65
42761;BME280;31672;47.638;19.026;2023-04-06T15:37:03;99928.19;;;6.12;49.82
42761;BME280;31672;47.638;19.026;2023-04-06T15:42:07;99927.63;;;6.08;50.08
42761;BME280;31672;47.638;19.026;2023-04-06T15:47:11;99923.19;;;6.09;49.95
42761;BME280;31672;47.638;19.026;2023-04-06T15:52:13;99923.03;;;6.10;49.79
42761;BME280;31672;47.638;19.026;2023-04-06T15:57:17;99927.34;;;6.11;49.60
42761;BME280;31672;47.638;19.026;2023-04-06T16:02:20;99926.25;;;6.04;49.57
42761;BME280;31672;47.638;19.026;2023-04-06T16:07:25;99944.47;;;5.98;50.81
42761;BME280;31672;47.638;19.026;2023-04-06T16:12:28;99949.94;;;5.77;53.54
42761;BME280;31672;47.638;19.026;2023-04-06T16:17:31;99952.22;;;5.52;54.73
42761;BME280;31672;47.638;19.026;2023-04-06T16:22:34;99959.72;;;5.28;56.29
42761;BME280;31672;47.638;19.026;2023-04-06T16:27:38;99966.38;;;5.13;59.04
42761;BME280;31672;47.638;19.026;2023-04-06T16:32:41;99981.63;;;4.99;61.17
42761;BME280;31672;47.638;19.026;2023-04-06T16:37:45;99980.75;;;4.79;62.95
42761;BME280;31672;47.638;19.026;2023-04-06T16:42:48;99985.84;;;4.62;64.74
42761;BME280;31672;47.638;19.026;2023-04-06T16:47:51;99990.25;;;4.51;65.76
42761;BME280;31672;47.638;19.026;2023-04-06T16:52:54;99995.47;;;4.42;67.02
42761;BME280;31672;47.638;19.026;2023-04-06T16:57:57;99994.31;;;4.25;69.22
42761;BME280;31672;47.638;19.026;2023-04-06T17:03:00;99997.66;;;3.96;71.67
42761;BME280;31672;47.638;19.026;2023-04-06T17:08:04;99992.78;;;3.71;72.38
42761;BME280;31672;47.638;19.026;2023-04-06T17:13:07;99990.16;;;3.50;73.96
42761;BME280;31672;47.638;19.026;2023-04-06T17:18:10;99994.78;;;3.37;74.21
42761;BME280;31672;47.638;19.026;2023-04-06T17:23:14;99999.94;;;3.27;75.41
42761;BME280;31672;47.638;19.026;2023-04-06T17:28:17;100008.47;;;3.19;76.72
42761;BME280;31672;47.638;19.026;2023-04-06T17:33:20;100017.66;;;3.14;76.92
42761;BME280;31672;47.638;19.026;2023-04-06T17:38:23;100011.03;;;2.99;78.78
42761;BME280;31672;47.638;19.026;2023-04-06T17:43:27;100023.94;;;2.90;79.79
42761;BME280;31672;47.638;19.026;2023-04-06T17:48:30;100027.53;;;2.89;79.94
42761;BME280;31672;47.638;19.026;2023-04-06T17:53:34;100036.84;;;2.82;80.43
42761;BME280;31672;47.638;19.026;2023-04-06T17:58:39;100034.94;;;2.73;81.22
42761;BME280;31672;47.638;19.026;2023-04-06T18:03:42;100030.66;;;2.61;81.76
42761;BME280;31672;47.638;19.026;2023-04-06T18:08:45;100030.19;;;2.56;81.83
42761;BME280;31672;47.638;19.026;2023-04-06T18:13:48;100018.03;;;2.55;82.06
42761;BME280;31672;47.638;19.026;2023-04-06T18:18:51;100025.44;;;2.50;82.02
42761;BME280;31672;47.638;19.026;2023-04-06T18:23:54;100034.97;;;2.51;82.46
42761;BME280;31672;47.638;19.026;2023-04-06T18:28:59;100030.66;;;2.50;83.06
42761;BME280;31672;47.638;19.026;2023-04-06T18:34:02;100042.72;;;2.52;82.73
42761;BME280;31672;47.638;19.026;2023-04-06T18:39:06;100040.19;;;2.51;82.85
42761;BME280;31672;47.638;19.026;2023-04-06T18:44:09;100037.34;;;2.54;83.29
42761;BME280;31672;47.638;19.026;2023-04-06T18:49:12;100037.94;;;2.57;82.67
42761;BME280;31672;47.638;19.026;2023-04-06T18:54:15;100038.19;;;2.54;82.60
42761;BME280;31672;47.638;19.026;2023-04-06T18:59:18;100052.25;;;2.53;82.33
42761;BME280;31672;47.638;19.026;2023-04-06T19:04:22;100046.88;;;2.55;82.41
42761;BME280;31672;47.638;19.026;2023-04-06T19:09:25;100038.53;;;2.50;82.11
42761;BME280;31672;47.638;19.026;2023-04-06T19:14:31;100038.19;;;2.43;82.41
42761;BME280;31672;47.638;19.026;2023-04-06T19:19:34;100027.09;;;2.39;82.05
42761;BME280;31672;47.638;19.026;2023-04-06T19:24:40;100027.09;;;2.39;82.57
42761;BME280;31672;47.638;19.026;2023-04-06T19:29:44;100023.41;;;2.42;82.15
42761;BME280;31672;47.638;19.026;2023-04-06T19:34:47;100021.50;;;2.44;82.14
42761;BME280;31672;47.638;19.026;2023-04-06T19:39:50;100020.44;;;2.47;81.77
42761;BME280;31672;47.638;19.026;2023-04-06T19:44:53;100014.09;;;2.49;81.46
42761;BME280;31672;47.638;19.026;2023-04-06T19:50:02;100019.34;;;2.49;81.54
42761;BME280;31672;47.638;19.026;2023-04-06T19:55:05;100019.59;;;2.46;81.29
42761;BME280;31672;47.638;19.026;2023-04-06T20:00:09;100024.25;;;2.42;80.89
42761;BME280;31672;47.638;19.026;2023-04-06T20:05:12;100018.28;;;2.40;80.73
42761;BME280;31672;47.638;19.026;2023-04-06T20:10:16;100023.53;;;2.40;80.62
42761;BME280;31672;47.638;19.026;2023-04-06T20:15:20;100027.00;;;2.41;81.12
42761;BME280;31672;47.638;19.026;2023-04-06T20:20:24;100034.72;;;2.42;80.56
42761;BME280;31672;47.638;19.026;2023-04-06T20:25:27;100030.09;;;2.46;80.82
42761;BME280;31672;47.638;19.026;2023-04-06T20:30:30;100028.19;;;2.48;80.52
42761;BME280;31672;47.638;19.026;2023-04-06T20:35:33;100029.72;;;2.51;80.23
42761;BME280;31672;47.638;19.026;2023-04-06T20:40:38;100015.63;;;2.52;80.23
42761;BME280;31672;47.638;19.026;2023-04-06T20:45:46;100008.84;;;2.49;80.21
42761;BME280;31672;47.638;19.026;2023-04-06T20:50:50;100009.69;;;2.50;80.31
42761;BME280;31672;47.638;19.026;2023-04-06T20:55:55;100006.22;;;2.49;80.05
42761;BME280;31672;47.638;19.026;2023-04-06T21:00:59;100001.34;;;2.45;79.99
42761;BME280;31672;47.638;19.026;2023-04-06T21:06:02;100003.13;;;2.44;79.89
42761;BME280;31672;47.638;19.026;2023-04-06T21:11:06;99989.19;;;2.44;79.71
42761;BME280;31672;47.638;19.026;2023-04-06T21:16:09;99993.59;;;2.43;79.50
42761;BME280;31672;47.638;19.026;2023-04-06T21:21:13;99998.00;;;2.42;79.40
42761;BME280;31672;47.638;19.026;2023-04-06T21:26:16;100001.34;;;2.45;79.34
42761;BME280;31672;47.638;19.026;2023-04-06T21:31:19;99998.72;;;2.45;79.09
42761;BME280;31672;47.638;19.026;2023-04-06T21:36:23;99994.91;;;2.49;78.81
42761;BME280;31672;47.638;19.026;2023-04-06T21:41:31;99988.69;;;2.50;79.30
42761;BME280;31672;47.638;19.026;2023-04-06T21:46:34;99980.13;;;2.48;78.87
42761;BME280;31672;47.638;19.026;2023-04-06T21:51:37;99964.41;;;2.48;79.01
42761;BME280;31672;47.638;19.026;2023-04-06T21:56:40;99958.88;;;2.51;78.90
42761;BME280;31672;47.638;19.026;2023-04-06T22:01:43;99943.88;;;2.53;78.63
42761;BME280;31672;47.638;19.026;2023-04-06T22:06:46;99936.00;;;2.53;78.78
42761;BME280;31672;47.638;19.026;2023-04-06T22:11:49;99936.13;;;2.51;78.86
42761;BME280;31672;47.638;19.026;2023-04-06T22:16:52;99930.78;;;2.53;78.08
42761;BME280;31672;47.638;19.026;2023-04-06T22:21:56;99926.59;;;2.50;77.70
42761;BME280;31672;47.638;19.026;2023-04-06T22:26:59;99917.06;;;2.49;77.94
42761;BME280;31672;47.638;19.026;2023-04-06T22:32:02;99923.97;;;2.50;77.65
42761;BME280;31672;47.638;19.026;2023-04-06T22:37:05;99921.69;;;2.46;78.28
42761;BME280;31672;47.638;19.026;2023-04-06T22:42:08;99931.00;;;2.50;78.32
42761;BME280;31672;47.638;19.026;2023-04-06T22:47:11;99916.09;;;2.50;78.05
42761;BME280;31672;47.638;19.026;2023-04-06T22:52:15;99918.59;;;2.52;78.46
42761;BME280;31672;47.638;19.026;2023-04-06T22:57:18;99925.41;;;2.54;78.38
42761;BME280;31672;47.638;19.026;2023-04-06T23:02:21;99923.00;;;2.51;78.47
42761;BME280;31672;47.638;19.026;2023-04-06T23:07:25;99922.16;;;2.51;77.56
42761;BME280;31672;47.638;19.026;2023-04-06T23:12:28;99921.09;;;2.53;77.40
42761;BME280;31672;47.638;19.026;2023-04-06T23:17:32;99920.28;;;2.53;77.33
42761;BME280;31672;47.638;19.026;2023-04-06T23:22:35;99910.84;;;2.50;77.50
42761;BME280;31672;47.638;19.026;2023-04-06T23:27:38;99909.19;;;2.49;77.01
42761;BME280;31672;47.638;19.026;2023-04-06T23:32:41;99910.03;;;2.50;77.08
42761;BME280;31672;47.638;19.026;2023-04-06T23:37:44;99904.78;;;2.50;76.63
42761;BME280;31672;47.638;19.026;2023-04-06T23:42:48;99898.56;;;2.51;76.43
42761;BME280;31672;47.638;19.026;2023-04-06T23:47:51;99908.00;;;2.53;75.81
42761;BME280;31672;47.638;19.026;2023-04-06T23:52:54;99898.19;;;2.55;75.58
42761;BME280;31672;47.638;19.026;2023-04-06T23:57:57;99893.78;;;2.56;75.51
